• Join FlightAware (Why Join?)
  • Login
  • US Flag 
02:13PM EDT


 

Airport Tracker/Info


-or-


 

Live Flight TrackerFlight Track Log ✈ RPA3196 ✈ 09-Jul-2013 ✈ KCLE - KPHL

Flight Track Log - Related Links

Times and Time Zones

All times are in EDT time to prevent confusion due to time zone crossing. See the RPA3196 flight status page for this flight to view local times or setup timezone preferences in your user account.

Time Position Orientation Groundspeed Altitude Reporting Facility
EDT Latitude Longitude Course Direction KTS MPH feet Rate Location/Type
06:43AM 41.3856 -81.8783 108° East 144 166 2,300  Level Cleveland Center
06:44AM 41.3381 -81.8469 154° Southeast 221 254 3,900 1,740 Climbing Cleveland Center
06:45AM 41.3056 -81.7606 117° Southeast 269 310 5,900 2,280 Climbing Cleveland Center
06:46AM 41.2062 -81.4156 118° Southeast  Level FlightAware Approximate
06:46AM 41.2692 -81.6578 115° Southeast 290 334 8,500  Level Cleveland Center
06:47AM 41.1504 -81.3131 127° Southeast  Level FlightAware Approximate
06:47AM 41.2347 -81.5494 113° Southeast 309 356 10,900  Level Cleveland Center
06:48AM 41.1019 -81.2046 118° Southeast  Level FlightAware Approximate
06:48AM 41.1939 -81.4358 116° Southeast 327 376 12,900  Level Cleveland Center
06:49AM 41.0713 -81.0849 108° East  Level FlightAware Approximate
06:49AM 41.1489 -81.3194 117° Southeast 340 391 15,500  Level Cleveland Center
06:50AM 41.1058 -81.1975 115° Southeast 362 417 17,800 2,220 Climbing Cleveland Center
06:51AM 41.0667 -81.0622 111° Southeast 368 423 20,000 2,100 Climbing Cleveland Center
06:52AM 41.0319 -80.9272 109° East 383 441 22,000 1,800 Climbing Cleveland Center
06:53AM 40.9925 -80.7894 111° Southeast 388 447 23,700 1,500 Climbing Cleveland Center
06:54AM 40.9531 -80.6519 111° Southeast 393 452 25,000 600 Climbing Cleveland Center
06:55AM 40.9114 -80.5061 111° Southeast 399 459 25,000  Level Cleveland Center
06:56AM 40.8717 -80.3661 111° Southeast 405 466 25,000  Level Cleveland Center
06:57AM 40.8297 -80.2319 112° Southeast 410 472 25,000  Level Cleveland Center
06:58AM 40.7833 -80.1033 115° Southeast 403 464 25,000  Level Cleveland Center
06:59AM 40.7472 -79.9911 113° Southeast 398 458 25,000  Level Cleveland Center
07:00AM 40.6944 -79.8492 116° Southeast 398 458 25,000  Level Cleveland Center
07:01AM 40.6475 -79.7183 115° Southeast 398 458 25,000  Level Cleveland Center
07:02AM 40.6028 -79.5850 114° Southeast 398 458 25,000  Level Cleveland Center
07:03AM 40.5847 -79.4458 100° East 392 451 25,000  Level Cleveland Center
07:04AM 40.5664 -79.2903 99° East 387 445 25,000  Level Cleveland Center
07:05AM 40.5525 -79.1622 98° East 393 452 25,000  Level Cleveland Center
07:06AM 40.5381 -79.0258 98° East 387 445 25,000  Level Cleveland Center
07:07AM 40.5214 -78.8869 99° East 387 445 25,000  Level Cleveland Center
07:08AM 40.5069 -78.7481 98° East 387 445 25,000  Level Cleveland Center
07:09AM 40.4900 -78.6119 99° East 387 445 25,000  Level Cleveland Center
07:12AM 40.4517 -78.2858 99° East 376 433 25,000  Level New York Center
07:13AM 40.4356 -78.1478 99° East 376 433 25,000  Level New York Center
07:14AM 40.4189 -78.0097 99° East 376 433 25,000 -120 Level New York Center
07:15AM 40.4022 -77.8717 99° East 376 433 24,800 -660 Descending New York Center
07:16AM 40.3811 -77.7358 101° East 376 433 23,700 -1,140 Descending New York Center
07:17AM 40.3600 -77.6000 101° East 376 433 22,600 -1,140 Descending New York Center
07:18AM 40.3364 -77.4644 103° East 376 433 21,500 -1,080 Descending New York Center
07:19AM 40.3106 -77.3311 104° East 381 438 20,500 -1,020 Descending New York Center
07:20AM 40.2878 -77.2147 104° East 381 438 19,500 -1,020 Descending New York Center
07:21AM 40.2656 -77.0847 103° East 370 426 18,500 -780 Descending New York Center
07:22AM 40.2397 -76.9408 103° East 365 420 18,000 -300 Descending New York Center
07:23AM 40.2231 -76.8197 100° East 372 428 18,000  Level New York Center
07:24AM 40.2067 -76.6906 99° East 366 421 18,000  Level New York Center
07:25AM 40.1886 -76.5503 100° East 356 410 18,000 -120 Level New York Center
07:26AM 40.1717 -76.4267 100° East 356 410 17,800 -960 Descending New York Center
07:27AM 40.1567 -76.3033 99° East 348 400 16,200 -1,680 Descending New York Center
07:28AM 40.1411 -76.1933 100° East 342 394 14,500 -1,860 Descending New York Center
07:29AM 40.1239 -76.0644 100° East 333 383 12,500 -1,860 Descending New York Center
07:30AM 40.1103 -75.9494 99° East 323 372 10,800 -1,680 Descending New York Center
07:31AM 40.0919 -75.8422 103° East 309 356 9,200 -1,440 Descending New York Center
07:32AM 40.0822 -75.7331 97° East 303 349 8,000 -960 Descending New York Center
07:33AM 40.0739 -75.6267 96° East 293 337 7,400 -540 Descending New York Center
07:34AM 40.0694 -75.5314 93° East 293 337 7,000 -240 Descending New York Center
07:35AM 40.0639 -75.4142 94° East 293 337 7,000 -480 Level New York Center
07:35AM 40.0667 -75.3167 88° East 294 338 6,100 -1,080 Descending Philadelphia TRACON
07:36AM 40.0500 -75.2167 102° East 272 313 5,100 -780 Descending Philadelphia TRACON
07:38AM 40.0167 -75.1333 118° Southeast 215 247 4,600 -960 Descending Philadelphia TRACON
07:39AM 39.9667 -75.1000 153° Southeast 208 239 3,100 -1,200 Descending Philadelphia TRACON
07:40AM 39.9167 -75.0833 166° South 177 204 2,100 -840 Descending Philadelphia TRACON
07:41AM 39.9000 -75.1167 237° Southwest 163 188 1,500 -720 Descending Philadelphia TRACON